Weather observations for the past three days for
Blair Municipal Airport
Imperial (Metric)
Date Time (cdt) Wind (mph) Vis. (mi.) Weather Sky Cond. Temperature (ºF) Relative Humidity Wind Chill (°F) Heat Index (°F) Pressure Precipitation (in)
Air Dwpt 6 hour altimeter (in) sea level (mb) 1 hr 3 hr 6 hr
Max. Min.
31 00:55 Calm 10.00 Fair CLR 78.1 70.9 86.5 75.4 79% 80 29.82 0.0
31 00:35 Calm 10.00 Fair CLR 78.1 70.7 78% 80 29.82 0.0
31 00:15 NW 3 10.00 Fair CLR 75.9 71.1 85% 76 29.81 0.0
30 23:55 Calm 10.00 Fair CLR 80.1 70.9 74% 84 29.81 0.0
30 23:35 Calm 10.00 Fair CLR 81.5 70.9 70% 86 29.82 0.0
30 23:15 NW 3 10.00 Fair CLR 77.5 71.2 81% 79 29.81 0.0
30 22:55 Calm 10.00 Fair CLR 78.3 71.1 79% 81 29.82 0.0
30 22:35 Calm 10.00 Fair CLR 80.6 70.5 71% 84 29.82 0.0
30 22:15 Calm 10.00 Fair CLR 82.4 70.3 67% 87 29.82 0.0
30 21:55 Calm 10.00 Fair CLR 82 70.7 69% 86 29.82 0.0
30 21:35 SE 3 10.00 Fair CLR 82.9 70.5 66% 87 29.82 0.0
30 21:15 Calm 10.00 Fair CLR 81.9 70.9 69% 86 29.82 0.0
30 20:55 Calm 10.00 Fair CLR 81.1 71.8 73% 85 29.81 0.0
30 20:35 S 3 7.00 Fair CLR 79.7 72.7 79% 84 29.81 0.0
30 20:15 S 3 10.00 Fair CLR 80.2 72.5 77% 84 29.8 0.0
30 19:55 S 5 10.00 Fair CLR 82.2 72.1 72% 87 29.8 0.0
30 19:35 S 5 10.00 Fair CLR 83.7 72.7 70% 90 29.8 0.0
30 19:15 S 5 10.00 Fair CLR 84.9 72.7 67% 91 29.81 0.0
30 18:55 S 5 10.00 Fair CLR 86.7 72.7 89.6 82.6 63% 94 29.8 0.0
30 18:35 S 6 10.00 Fair CLR 87.4 72.1 61% 94 29.81 0.0
30 18:15 S 7 10.00 Fair CLR 88.2 71.4 58% 94 29.8 0.0
30 17:55 S 7 10.00 Fair CLR 87.6 71.4 59% 94 29.8 0.0
30 17:35 S 7 10.00 Fair CLR 88.7 69.6 53% 94 29.8 0.0
30 17:15 SW 9 10.00 Fair CLR 87.8 70.2 56% 93 29.8 0.0
30 16:55 S 9 10.00 Fair CLR 89.6 69.4 52% 95 29.79 0.0
30 16:35 S 9 10.00 Fair CLR 89.1 68.4 51% 93 29.79 0.0
30 16:15 S 9 10.00 Fair CLR 88.5 67.5 50% 92 29.79 0.0
30 15:55 S 15 G 20 10.00 Fair CLR 87.3 66.9 51% 90 29.81 0.0
30 15:35 S 13 10.00 Fair CLR 87.1 68 53% 91 29.8 0.0
30 15:15 S 9 10.00 Fair CLR 86 66.4 52% 88 29.8 0.0
30 14:55 S 14 G 20 10.00 Fair CLR 88 67.5 51% 91 29.81 0.0
30 14:35 S 16 G 23 10.00 Fair CLR 88.5 68.2 51% 92 29.82 0.0
30 14:15 S 13 G 17 10.00 Fair CLR 87.6 68 52% 91 29.81 0.0
30 13:55 S 9 10.00 Fair CLR 86.9 67.6 53% 90 29.8 0.0
30 13:35 SW 9 10.00 Fair CLR 86 67.3 54% 89 29.81 0.0
30 13:15 SW 10 10.00 Fair CLR 86.5 67.3 53% 90 29.82 0.0
30 12:55 S 12 G 15 10.00 Fair CLR 83.1 65.5 86 76.1 55% 85 29.83 0.0
30 12:35 S 13 G 18 10.00 Fair CLR 83.7 64.6 53% 85 29.83 0.0
30 12:10 S 12 G 20 10.00 Fair CLR 85.3 64.6 50% 87 29.83 0.0
30 11:55 S 12 10.00 Fair CLR 85.8 66 52% 88 29.82 0.0
30 11:35 S 9 G 17 10.00 Fair CLR 84.9 65.8 53% 87 29.82 0.0
30 11:15 S 13 10.00 Fair CLR 83.8 66 55% 86 29.83 0.0
30 10:55 S 8 G 16 10.00 Fair CLR 82.2 66.2 58% 84 29.82 0.0
30 10:35 S 8 10.00 Fair CLR 82.4 65.1 56% 84 29.83 0.0
30 10:15 S 10 10.00 Fair CLR 81.1 64.9 58% 83 29.83 0.0
30 09:55 S 7 10.00 Thunderstorm in Vicinity CLR 80.2 65.1 60% 82 29.82 0.0
30 09:35 S 9 10.00 Fair CLR 80.4 64.8 59% 82 29.82 0.0
30 09:15 S 8 10.00 Fair CLR 77.9 63.9 62% 80 29.82 0.0
30 08:55 S 9 10.00 Thunderstorm in Vicinity CLR 77 63.9 64% 79 29.82 0.0
30 08:35 S 8 10.00 Fair CLR 76.3 63.9 66% 78 29.81 0.0
30 08:15 S 9 10.00 Thunderstorm SCT075 SCT120 76.6 63.1 63% 78 29.81 0.0
30 07:55 S 8 10.00 Thunderstorm BKN120 76.5 63.1 64% 78 29.82 0.0
30 07:35 S 9 10.00 Mostly Cloudy BKN120 76.6 62.8 62% 78 29.82 0.0
30 07:15 S 9 10.00 Thunderstorm in Vicinity SCT120 76.6 62.8 62% 78 29.81 0.0
30 06:55 S 9 10.00 Fair CLR 76.1 62.8 80.6 75.2 63% 78 29.81 0.0
30 06:35 S 9 10.00 Fair CLR 76.5 62.6 62% 78 29.81 0.0
30 06:15 S 10 10.00 Fair CLR 76.3 62.6 63% 78 29.81 0.0
30 05:55 S 9 10.00 Fair CLR 75.4 63.3 66% 77 29.83 0.0
30 05:35 SW 7 10.00 Fair CLR 77.2 62.8 61% 79 29.84 0.0
30 05:15 S 9 10.00 Partly Cloudy SCT110 77 63.3 63% 79 29.83 0.0
30 04:55 SW 6 10.00 Thunderstorm in Vicinity SCT095 76.3 63.7 65% 78 29.84 0.0
30 04:35 S 9 10.00 Light Rain SCT055 BKN110 76.6 64.4 66% 78 29.83 0.0
30 04:15 S 10 10.00 Partly Cloudy SCT110 78.1 63.5 61% 80 29.83 0.0
30 03:55 S 9 10.00 Fair CLR 77.5 63.3 62% 79 29.82 0.0
30 03:35 S 10 10.00 Fair CLR 77.5 63.1 61% 79 29.81 0.0
30 03:15 S 12 10.00 Fair CLR 77.4 63.5 62% 79 29.81 0.0
30 02:55 S 12 10.00 Fair CLR 77.9 63.3 61% 80 29.81 0.0
30 02:35 S 13 10.00 Fair CLR 78.4 63.3 60% 80 29.81 0.0
30 02:15 S 15 10.00 Fair CLR 78.8 63.7 60% 80 29.81 0.0
30 01:55 S 13 G 18 10.00 Fair CLR 79.2 64 60% 81 29.81 0.0
30 01:35 S 12 G 18 10.00 Fair CLR 79.3 64.6 61% 81 29.82 0.0
30 01:15 S 10 G 18 10.00 Fair CLR 79.7 64.8 60% 81 29.82 0.0
30 00:55 S 14 10.00 Fair CLR 80.6 65.3 85.8 80.6 60% 83 29.82 0.0
30 00:35 S 13 G 20 10.00 Fair CLR 80.8 65.5 60% 83 29.81 0.0
30 00:15 S 12 10.00 Fair CLR 81.5 65.8 59% 84 29.81 0.0
29 23:55 S 13 G 18 10.00 Fair CLR 82 66.2 59% 84 29.81 0.0
29 23:35 S 13 G 18 10.00 Fair CLR 82.4 66.7 59% 85 29.81 0.0
29 23:15 S 12 10.00 Fair CLR 81.9 68 63% 85 29.82 0.0
29 22:55 S 10 10.00 Fair CLR 81.9 68.2 63% 85 29.82 0.0
29 22:35 S 10 G 16 10.00 Fair CLR 82 68.2 63% 85 29.81 0.0
29 22:15 S 12 10.00 Fair CLR 82.4 68.7 63% 86 29.81 0.0
29 21:55 S 10 10.00 Fair CLR 82.4 69.8 66% 86 29.81 0.0
29 21:35 S 9 10.00 Fair CLR 82.4 70 66% 86 29.8 0.0
29 21:15 S 9 10.00 Fair CLR 82.4 70.9 68% 87 29.8 0.0
29 20:55 S 10 10.00 Fair CLR 82.6 71.4 69% 87 29.79 0.0
29 20:35 S 8 10.00 Fair CLR 82.8 71.8 70% 88 29.78 0.0
29 20:15 S 8 10.00 Fair CLR 83.3 72 69% 89 29.78 0.0
29 19:55 S 8 10.00 Fair CLR 83.8 72 68% 89 29.78 0.0
29 19:35 S 8 10.00 Fair CLR 84.6 72.1 66% 90 29.78 0.0
29 19:15 S 8 10.00 Fair CLR 85.5 71.8 64% 91 29.79 0.0
29 18:35 S 9 10.00 Fair CLR 87.4 70.5 57% 93 29.8 0.0
29 18:15 S 9 10.00 Fair CLR 87.4 70.9 58% 93 29.79 0.0
29 17:55 S 10 10.00 Fair CLR 87.3 70.3 57% 92 29.8 0.0
29 17:35 S 9 G 17 10.00 Fair CLR 88 69.3 54% 93 29.8 0.0
29 17:15 S 13 G 18 10.00 Fair CLR 87.6 69.1 54% 92 29.8 0.0
29 16:55 S 15 10.00 Fair CLR 88.2 68.4 52% 92 29.8 0.0
29 16:35 S 12 G 18 10.00 Fair CLR 87.4 70.2 57% 93 29.81 0.0
29 16:15 S 10 10.00 Fair CLR 86.2 68.9 56% 90 29.81 0.0
29 15:55 S 14 G 21 10.00 Fair CLR 84.7 68.5 58% 88 29.81 0.0
29 15:35 S 13 G 17 10.00 Fair CLR 81.1 67.8 64% 84 29.83 0.0
29 15:15 S 7 10.00 Light Rain SCT041 SCT049 SCT070 77.9 67.6 71% 80 29.83 0.0
29 14:55 S 13 G 18 10.00 Fair CLR 82 64.8 56% 84 29.85 0.0
29 14:35 S 12 G 18 10.00 Thunderstorm in Vicinity CLR 82.6 64.9 55% 84 29.85 0.0
29 14:15 S 14 G 20 10.00 Fair CLR 81.9 64 55% 83 29.85 0.0
29 13:55 S 14 10.00 Fair CLR 82.4 64.4 55% 84 29.86 0.0
29 13:35 S 14 G 20 10.00 Fair CLR 83.3 64 52% 85 29.86 0.0
29 13:15 S 15 G 20 10.00 Fair CLR 82.8 63.1 52% 84 29.87 0.0
29 12:55 S 10 G 17 10.00 Fair CLR 82.8 63.1 82.9 70.2 52% 84 29.88 0.0
29 12:35 S 12 10.00 Fair CLR 80.8 62.1 53% 82 29.88 0.0
29 12:15 S 14 10.00 Fair CLR 82.2 63 52% 83 29.88 0.0
29 11:55 S 14 10.00 Fair CLR 81.3 61.5 51% 82 29.88 0.0
29 11:35 S 16 G 21 10.00 Fair CLR 81.3 61.5 51% 82 29.89 0.0
29 11:15 S 20 G 25 10.00 Fair CLR 79.7 60.6 52% 81 29.89 0.0
29 10:55 S 14 G 25 10.00 Fair CLR 79 60.3 53% 80 29.89 0.0
29 10:35 S 13 G 22 10.00 Fair CLR 75.7 59.4 57% 78 29.89 0.0
29 10:15 S 16 G 21 10.00 Fair CLR 75.9 59.7 57% 78 29.9 0.0
29 09:55 S 15 G 22 10.00 Fair CLR 73.9 59 60% 29.9 0.0
29 09:35 S 15 10.00 Fair CLR 73.4 58.6 60% 29.91 0.0
29 09:15 S 14 G 21 10.00 Fair CLR 72.9 58.5 61% 29.92 0.0
29 08:55 S 15 G 20 10.00 Fair CLR 72.1 58.5 62% 29.92 0.0
29 08:35 S 15 10.00 Fair CLR 71.1 58.1 64% 29.91 0.0
29 08:15 S 14 G 20 10.00 Fair CLR 70.5 58.1 65% 29.91 0.0
29 07:55 S 14 10.00 Fair CLR 70.3 58.1 65% 29.92 0.0
29 07:35 S 15 10.00 Fair CLR 70.2 57.6 64% 29.92 0.0
29 07:15 S 13 10.00 Fair CLR 70.3 57.6 64% 29.93 0.0
29 06:55 S 13 10.00 Fair CLR 70.5 57.6 73.4 70.3 64% 29.92 0.0
29 06:35 S 12 G 18 10.00 Fair CLR 70.3 58.1 65% 29.92 0.0
29 06:15 S 13 10.00 Partly Cloudy SCT095 70.7 58.1 65% 29.93 0.0
29 05:50 S 12 G 15 10.00 Partly Cloudy SCT095 70.7 58.5 65% 29.93 0.0
29 05:35 S 14 10.00 Fair CLR 70.7 59 67% 29.94 0.0
29 05:15 S 14 G 20 10.00 Fair CLR 70.9 59 66% 29.95 0.0
29 04:55 S 14 G 18 10.00 Fair CLR 71.1 59.2 66% 29.95 0.0
29 04:35 S 15 G 23 10.00 Fair CLR 71.2 59.2 66% 29.95 0.0
29 04:15 S 18 G 22 10.00 Fair CLR 71.8 59.2 65% 29.95 0.0
29 03:55 S 14 G 22 10.00 Fair CLR 72.5 59.2 63% 29.96 0.0
29 03:35 S 15 G 21 10.00 Fair CLR 72.5 59.9 65% 29.96 0.0
29 03:15 S 12 G 21 10.00 Fair CLR 72.5 60.1 65% 29.97 0.0
29 02:55 S 13 G 18 10.00 Fair CLR 72.3 60.1 66% 29.98 0.0
29 02:35 S 14 G 20 10.00 Fair CLR 72.5 60.3 66% 29.98 0.0
29 02:15 S 13 G 18 10.00 Fair CLR 72.9 60.4 65% 29.98 0.0
29 01:55 S 13 G 18 10.00 Fair CLR 73.2 60.6 65% 29.98 0.0
29 01:35 S 14 G 17 10.00 Fair CLR 73.4 60.8 65% 29.98 0.0
29 01:15 S 13 G 16 10.00 Fair CLR 73.4 61.2 66% 29.98 0.0
29 00:55 S 9 G 17 10.00 Fair CLR 73.2 61.7 81.3 73.2 67% 29.99 0.0
29 00:35 S 10 G 16 10.00 Fair CLR 73.8 61.7 66% 30 0.0
29 00:15 SE 13 G 17 10.00 Fair CLR 74.1 61.7 65% 30 0.0
28 23:55 S 12 G 17 10.00 Fair CLR 73.6 62.6 69% 30.01 0.0
28 23:35 S 10 10.00 Fair CLR 74.3 62.8 67% 30.01 0.0
28 23:15 S 12 G 18 10.00 Fair CLR 74.5 62.8 67% 30.01 0.0
28 22:55 S 13 G 17 10.00 Fair CLR 74.8 62.8 66% 30.01 0.0
28 22:35 S 10 10.00 Fair CLR 74.8 62.8 66% 30.01 0.0
28 22:15 S 10 10.00 Fair CLR 75.2 63 66% 77 30.01 0.0
28 21:55 SE 9 10.00 Fair CLR 75.4 62.8 65% 77 30.01 0.0
28 21:35 SE 8 10.00 Fair CLR 75.2 63.3 67% 77 30.01 0.0
28 21:15 SE 8 10.00 Fair CLR 75.4 64 68% 77 30.01 0.0
28 20:55 SE 6 10.00 Fair CLR 75.6 64.8 69% 77 30 0.0
28 20:35 SE 7 10.00 Fair CLR 76.1 65.1 69% 78 30 0.0
28 20:15 S 9 10.00 Fair CLR 77.2 64.9 66% 79 30 0.0
28 19:55 S 8 10.00 Fair CLR 78.1 65.3 65% 80 30 0.0
28 19:35 S 7 10.00 Fair CLR 79.7 65.1 61% 82 30 0.0
28 19:15 S 9 10.00 Fair CLR 80.6 65.5 60% 83 30.01 0.0
28 18:55 S 8 G 16 10.00 Fair CLR 81.3 65.5 84.2 81 59% 83 30.02 0.0
28 18:35 S 10 10.00 Fair CLR 82 65.7 58% 84 30.02 0.0
28 18:15 S 9 G 20 10.00 Fair CLR 82.6 65.7 57% 85 30.03 0.0
28 17:55 S 10 G 17 10.00 Fair CLR 83.3 65.7 55% 85 30.03 0.0
28 17:35 S 10 G 16 10.00 Fair CLR 83.3 65.3 55% 85 30.03 0.0
28 17:15 S 12 10.00 Fair CLR 83.5 65.8 55% 86 30.04 0.0
28 16:55 S 14 10.00 Fair CLR 83.7 65.1 54% 85 30.04 0.0
28 16:35 S 12 G 16 10.00 Fair CLR 83.8 65.1 53% 86 30.05 0.0
28 16:15 S 8 10.00 Fair CLR 83.7 64.4 52% 85 30.05 0.0
28 15:55 S 13 G 16 10.00 Fair CLR 83.8 65.1 53% 86 30.06 0.0
28 15:35 S 10 G 17 10.00 Fair CLR 83.8 64.6 52% 85 30.07 0.0
28 15:15 S 10 G 16 10.00 Fair CLR 83.7 64.8 53% 85 30.08 0.0
28 14:55 S 13 G 18 10.00 Fair CLR 83.3 64 52% 85 30.08 0.0
28 14:35 S 10 10.00 Fair CLR 83.5 63.5 51% 85 30.08 0.0
28 14:15 S 13 G 17 10.00 Fair CLR 82.8 63.5 52% 84 30.09 0.0
28 13:55 S 10 10.00 Fair CLR 82.6 64.2 54% 84 30.1 0.0
28 13:35 S 9 G 16 10.00 Fair CLR 82.2 64.6 55% 84 30.1 0.0
28 13:15 S 12 G 18 10.00 Fair CLR 81.3 63.7 55% 83 30.11 0.0
28 12:55 S 13 10.00 Fair CLR 81 62.8 81.1 64.9 54% 82 30.12 0.0
28 12:35 S 12 10.00 Fair CLR 80.6 63.1 55% 82 30.14 0.0
28 12:15 S 9 10.00 Fair CLR 79.9 63.1 57% 81 30.14 0.0
28 11:55 S 9 10.00 Fair CLR 79.5 62.8 57% 81 30.15 0.0
28 11:35 S 10 10.00 Fair CLR 79 63 58% 81 30.15 0.0
28 11:15 S 15 10.00 Fair CLR 78.3 61.9 57% 80 30.15 0.0
28 10:55 S 13 10.00 Fair CLR 77.5 62.6 60% 79 30.15 0.0
28 10:35 S 8 10.00 Fair CLR 76.5 62.4 62% 78 30.15 0.0
28 10:15 S 10 10.00 Fair CLR 75.6 61.9 63% 78 30.15 0.0
28 09:55 S 12 10.00 Fair CLR 75.4 62.6 65% 77 30.15 0.0
28 09:35 S 7 10.00 Fair CLR 74.1 62.6 67% 30.15 0.0
28 09:15 SE 6 10.00 Fair CLR 72.7 62.6 71% 30.15 0.0
28 08:55 SE 5 10.00 Fair CLR 70.7 63.1 77% 30.15 0.0
28 08:35 SE 3 10.00 Fair CLR 69.3 62.4 79% 30.15 0.0
28 08:15 Calm 10.00 Fair CLR 68 62.2 82% 30.15 0.0
28 07:55 SE 5 7.00 Fair CLR 66.9 61.7 83% 30.15 0.0
28 07:35 SE 5 10.00 Fair CLR 66 61.2 84% 30.14 0.0
28 07:15 S 6 10.00 Fair CLR 65.7 61.2 85% 30.14 0.0
28 06:55 S 6 10.00 Partly Cloudy SCT065 64.9 61.3 68.2 64.8 88% 30.14 0.0
28 06:35 S 8 10.00 Overcast SCT065 BKN075 OVC110 65.3 61.9 89% 30.14 0.0
28 06:15 S 5 10.00 Overcast BKN065 BKN085 OVC110 65.3 61.9 89% 30.13 0.0
28 05:55 Calm 10.00 Overcast OVC065 65.3 61.7 88% 30.13 0.0
28 05:35 Calm 7.00 Mostly Cloudy BKN065 BKN110 66.6 61.2 83% 30.12 0.0
28 05:15 Calm 10.00 Mostly Cloudy BKN065 BKN085 BKN110 66 61.3 85% 30.12 0.0
28 04:55 Calm 10.00 Mostly Cloudy BKN065 67.3 61.5 82% 30.11 0.0
28 04:35 S 3 10.00 Mostly Cloudy BKN065 BKN080 67.1 61.7 83% 30.12 0.0
28 04:15 S 3 10.00 Overcast BKN065 OVC080 67.1 61.7 83% 30.12 0.0
28 03:55 Calm 10.00 Mostly Cloudy BKN065 BKN075 66.9 61.7 83% 30.11 0.0
28 03:35 Calm 10.00 Mostly Cloudy SCT070 BKN080 BKN095 66.6 61.7 84% 30.11 0.0
28 03:15 Calm 10.00 Mostly Cloudy BKN070 BKN120 67.6 61.7 81% 30.1 0.0
28 02:55 Calm 10.00 Partly Cloudy SCT070 67.1 61.7 83% 30.11 0.0
28 02:35 SE 6 10.00 Partly Cloudy SCT070 67.1 61.5 82% 30.1 0.0
28 02:15 SE 5 10.00 Fair CLR 66.6 61.3 83% 30.11 0.0
28 01:55 SE 3 10.00 Fair CLR 67.8 61.3 80% 30.1 0.0
28 01:35 SE 3 10.00 Fair CLR 67.3 61.3 81% 30.1 0.0
28 01:15 E 5 10.00 Fair CLR 67.3 61 80% 30.11 0.0
Date Time (cdt) Wind (mph) Vis. (mi.) Weather Sky Cond. Air Dwpt Max. Min. Relative Humidity Wind Chill (°F) Heat Index (°F) altimeter (in) sea level (mb) 1 hr 3 hr 6 hr
6 hour
Temperature (ºF) Pressure Precipitation (in)